Time;durP1;ratioP1;P1;durP2;ratioP2;P2;SDS_P1;SDS_P2;PMS_P1;PMS_P2;Temp;Humidity;BMP_temperature;BMP_pressure;BME280_temperature;BME280_humidity;BME280_pressure;Samples;Min_cycle;Max_cycle;Signal;HPM_P1;HPM_P2
2023/07/19 00:00:38;;;;;;;4.38;2.30;;;;;;;15.24;79.81;101369.13;4946024;28;20083;-76
2023/07/19 00:03:04;;;;;;;3.92;1.98;;;;;;;15.27;80.03;101368.59;4936915;28;20053;-76
2023/07/19 00:05:30;;;;;;;3.85;2.40;;;;;;;15.26;79.92;101350.78;4943455;28;20412;-81
2023/07/19 00:07:56;;;;;;;;;;;;;;;15.29;79.68;101366.41;4934659;28;20089;-77
2023/07/19 00:10:22;;;;;;;4.50;2.08;;;;;;;15.28;79.15;101348.59;4941544;28;19929;-75
2023/07/19 00:12:47;;;;;;;4.35;2.30;;;;;;;15.26;78.98;101357.00;4943281;28;20043;-76
2023/07/19 00:15:13;;;;;;;;;;;;;;;15.28;79.20;101352.09;4943892;28;20073;-75
2023/07/19 00:17:41;;;;;;;8.05;2.33;;;;;;;15.26;78.94;101340.81;4941201;28;20013;-76
2023/07/19 00:20:07;;;;;;;5.05;2.40;;;;;;;15.23;79.21;101338.66;4920888;28;20086;-76
2023/07/19 00:22:33;;;;;;;3.15;1.90;;;;;;;15.24;78.77;101342.16;4942525;28;20138;-76
2023/07/19 00:24:59;;;;;;;;;;;;;;;15.23;79.06;101337.84;4937625;28;20039;-75
2023/07/19 00:27:25;;;;;;;2.65;1.88;;;;;;;15.21;78.59;101334.66;4926302;28;19926;-75
2023/07/19 00:29:52;;;;;;;;;;;;;;;15.22;80.14;101338.94;4942919;28;20059;-75
2023/07/19 00:32:18;;;;;;;3.03;2.47;;;;;;;15.21;79.02;101331.94;4923211;28;20319;-74
2023/07/19 00:34:43;;;;;;;;;;;;;;;15.23;79.51;101337.84;4927253;28;20701;-74
2023/07/19 00:37:08;;;;;;;3.08;2.20;;;;;;;15.20;79.13;101335.75;4920292;28;20607;-76
2023/07/19 00:39:34;;;;;;;3.80;2.40;;;;;;;15.19;79.40;101329.53;4926482;28;20043;-77
2023/07/19 00:42:01;;;;;;;4.68;2.20;;;;;;;15.17;79.89;101330.91;4935820;28;20046;-73
2023/07/19 00:44:27;;;;;;;4.65;2.28;;;;;;;15.17;80.63;101331.72;4942223;28;20042;-73
2023/07/19 00:46:53;;;;;;;;;;;;;;;15.20;81.06;101324.94;4942545;28;20477;-72
2023/07/19 00:49:19;;;;;;;3.63;2.72;;;;;;;15.19;81.10;101320.66;4920917;28;21054;-75
2023/07/19 00:51:45;;;;;;;;;;;;;;;15.22;81.92;101317.38;4944769;28;20094;-76
2023/07/19 00:54:11;;;;;;;4.20;2.35;;;;;;;15.20;81.16;101311.47;4919883;28;19933;-74
2023/07/19 00:56:38;;;;;;;4.55;2.40;;;;;;;15.24;80.45;101304.38;4949327;28;20043;-74
2023/07/19 00:59:04;;;;;;;5.68;2.63;;;;;;;15.26;81.29;101296.81;4941458;28;20039;-74
2023/07/19 01:01:30;;;;;;;3.15;2.25;;;;;;;15.28;80.64;101294.63;4947712;28;20039;-75
2023/07/19 01:03:56;;;;;;;4.35;2.55;;;;;;;15.29;81.14;101297.03;4945440;28;20067;-73
2023/07/19 01:06:21;;;;;;;;;;;;;;;15.29;81.64;101297.03;4947355;28;20139;-74
2023/07/19 01:08:48;;;;;;;3.63;1.92;;;;;;;15.25;80.89;101295.22;4947432;28;19998;-74
2023/07/19 01:11:14;;;;;;;4.20;2.72;;;;;;;15.25;80.62;101295.22;4928970;28;20035;-74
2023/07/19 01:13:49;;;;;;;;;;;;;;;15.24;81.50;101305.22;4934810;28;20035;-76
2023/07/19 01:16:15;;;;;;;3.70;1.98;;;;;;;15.19;80.96;101297.16;4929500;28;20315;-76
2023/07/19 01:18:41;;;;;;;;;;;;;;;15.18;82.02;101305.56;4932404;28;20054;-76
2023/07/19 01:21:06;;;;;;;4.35;2.33;;;;;;;15.15;80.94;101306.13;4945089;28;19918;-76
2023/07/19 01:23:32;;;;;;;;;;;;;;;15.13;82.90;101297.50;4943675;28;20054;-74
2023/07/19 01:25:57;;;;;;;3.58;2.20;;;;;;;15.03;81.68;101301.91;4931538;28;19918;-78
2023/07/19 01:28:23;;;;;;;;;;;;;;;15.05;82.31;101307.03;4937106;28;20044;-77
2023/07/19 01:30:48;;;;;;;3.67;2.03;;;;;;;15.02;81.51;101307.59;4934553;29;20024;-76
2023/07/19 01:33:14;;;;;;;;;;;;;;;15.02;83.10;101302.19;4926632;28;20468;-78
2023/07/19 01:35:39;;;;;;;4.75;2.90;;;;;;;14.94;82.96;101306.31;4957462;28;20271;-77
2023/07/19 01:38:05;;;;;;;;;;;;;;;14.96;83.39;101298.75;4946948;28;20061;-76
2023/07/19 01:40:31;;;;;;;5.97;2.47;;;;;;;14.93;82.50;101306.63;4948552;28;19998;-77
2023/07/19 01:42:56;;;;;;;;;;;;;;;14.94;82.85;101313.63;4943545;28;20077;-75
2023/07/19 01:45:22;;;;;;;7.20;2.90;;;;;;;14.93;82.74;101309.31;4930473;28;19984;-79
2023/07/19 01:47:49;;;;;;;5.20;2.60;;;;;;;14.92;83.06;101313.91;4926191;28;20039;-78
2023/07/19 01:50:15;;;;;;;;;;;;;;;14.93;83.55;101303.91;4931875;28;20023;-78
2023/07/19 01:52:41;;;;;;;4.00;2.47;;;;;;;14.89;82.84;101308.25;4953018;28;20038;-77
2023/07/19 01:55:06;;;;;;;;;;;;;;;14.92;82.97;101303.13;4942711;28;20408;-77
2023/07/19 01:57:32;;;;;;;3.38;2.13;;;;;;;14.92;82.56;101302.31;4931105;28;20382;-77
2023/07/19 01:59:58;;;;;;;;;;;;;;;14.94;83.52;101303.63;4929564;28;20034;-79
2023/07/19 02:02:23;;;;;;;5.13;3.03;;;;;;;14.92;82.48;101303.13;4935945;28;19922;-79
2023/07/19 02:04:49;;;;;;;;;;;;;;;14.94;82.96;101302.81;4917481;28;20122;-77
2023/07/19 02:07:15;;;;;;;3.53;2.50;;;;;;;14.94;83.38;101300.94;4924520;28;19929;-78
2023/07/19 02:09:40;;;;;;;;;;;;;;;14.94;83.61;101298.22;4935115;28;20062;-77
2023/07/19 02:12:08;;;;;;;4.13;2.33;;;;;;;14.92;82.98;101297.72;4944928;28;19939;-76
2023/07/19 02:14:33;;;;;;;5.20;2.40;;;;;;;14.94;83.33;101292.84;4945265;28;20042;-77
2023/07/19 02:16:59;;;;;;;;;;;;;;;14.95;83.42;101286.34;4943773;28;20043;-79
2023/07/19 02:19:25;;;;;;;6.13;2.80;;;;;;;14.94;83.35;101282.06;4951529;28;19930;-77
2023/07/19 02:21:51;;;;;;;4.63;2.70;;;;;;;14.95;82.62;101280.97;4919232;28;20074;-78
2023/07/19 02:24:17;;;;;;;;;;;;;;;14.95;82.83;101272.88;4930774;28;20059;-77
2023/07/19 02:26:43;;;;;;;3.80;2.33;;;;;;;14.97;81.69;101273.41;4937279;28;19996;-77
2023/07/19 02:29:08;;;;;;;3.78;1.90;;;;;;;14.98;81.75;101274.22;4922789;28;20477;-76
2023/07/19 02:31:35;;;;;;;3.40;2.13;;;;;;;14.99;82.15;101270.41;4954267;28;20146;-76
2023/07/19 02:34:01;;;;;;;3.65;2.22;;;;;;;15.00;81.57;101272.03;4930776;28;20038;-75
2023/07/19 02:36:27;;;;;;;3.53;2.00;;;;;;;15.00;80.96;101277.41;4967117;28;20461;-78
2023/07/19 02:38:53;;;;;;;;;;;;;;;15.02;81.09;101281.41;4920369;28;20045;-76
2023/07/19 02:41:18;;;;;;;5.30;2.47;;;;;;;15.02;80.36;101278.72;4953340;28;19918;-76
2023/07/19 02:43:45;;;;;;;6.00;2.67;;;;;;;15.06;80.28;101283.56;4958573;28;20061;-74
2023/07/19 02:46:11;;;;;;;;;;;;;;;15.08;79.04;101282.19;4925157;28;20118;-74
2023/07/19 02:48:37;;;;;;;4.78;2.20;;;;;;;15.15;79.14;101279.13;4949736;28;20763;-75
2023/07/19 02:51:02;;;;;;;4.05;2.50;;;;;;;15.17;78.89;101276.94;4951030;28;20039;-76
2023/07/19 02:53:28;;;;;;;3.90;2.10;;;;;;;15.21;78.76;101278.00;4929871;28;20035;-76
2023/07/19 02:55:54;;;;;;;;;;;;;;;15.23;78.95;101281.19;4945080;28;20061;-75
2023/07/19 02:58:19;;;;;;;7.35;2.70;;;;;;;15.23;76.95;101278.50;4961595;28;20306;-75
2023/07/19 03:00:45;;;;;;;4.55;2.00;;;;;;;15.25;78.30;101287.13;4948030;28;20031;-75
2023/07/19 03:03:11;;;;;;;4.28;2.22;;;;;;;15.25;78.38;101292.53;4940406;28;20034;-75
2023/07/19 03:05:42;;;;;;;4.22;1.98;;;;;;;15.22;78.34;101285.00;4955209;28;20126;-75
2023/07/19 03:08:08;;;;;;;4.47;2.15;;;;;;;15.24;79.59;101282.78;4954579;28;20363;-76
2023/07/19 03:10:34;;;;;;;2.95;2.08;;;;;;;15.22;80.01;101280.41;4955559;28;20507;-75
2023/07/19 03:13:00;;;;;;;5.60;2.30;;;;;;;15.16;80.29;101270.75;4933909;28;20066;-77
2023/07/19 03:15:27;;;;;;;;;;;;;;;15.13;80.07;101281.31;4937967;28;20114;-76
2023/07/19 03:17:52;;;;;;;4.05;2.10;;;;;;;15.08;80.98;101270.59;4951449;28;19918;-76
2023/07/19 03:20:18;;;;;;;;;;;;;;;15.05;82.07;101268.47;4921442;28;20400;-76
2023/07/19 03:22:44;;;;;;;2.90;2.00;;;;;;;14.98;81.29;101258.81;4935712;28;19918;-78
2023/07/19 03:25:10;;;;;;;4.28;2.33;;;;;;;14.95;81.40;101254.00;4935738;28;20416;-77
2023/07/19 03:27:36;;;;;;;;;;;;;;;14.90;82.44;101251.38;4956302;28;20450;-77
2023/07/19 03:30:02;;;;;;;6.75;2.38;;;;;;;14.86;82.29;101250.31;4957880;28;19928;-76
2023/07/19 03:32:29;;;;;;;5.63;2.33;;;;;;;14.83;82.35;101244.69;4951467;28;20080;-77
2023/07/19 03:34:55;;;;;;;5.00;2.05;;;;;;;14.79;82.55;101255.25;4957293;28;20078;-78
2023/07/19 03:37:21;;;;;;;;;;;;;;;14.76;83.83;101242.31;4950180;28;20074;-77
2023/07/19 03:39:46;;;;;;;3.97;2.25;;;;;;;14.70;83.88;101240.78;4950716;28;19926;-78
2023/07/19 03:42:13;;;;;;;5.38;2.20;;;;;;;14.67;83.70;101236.75;4948421;28;20039;-75
2023/07/19 03:44:39;;;;;;;;;;;;;;;14.68;83.74;101245.63;4923032;28;20035;-75
2023/07/19 03:47:05;;;;;;;3.75;2.15;;;;;;;14.65;83.51;101255.13;4942277;28;19921;-75
2023/07/19 03:49:32;;;;;;;4.90;2.75;;;;;;;14.64;84.46;101252.72;4937034;28;20040;-76
2023/07/19 03:51:57;;;;;;;3.80;2.33;;;;;;;14.61;84.25;101245.97;4941516;28;20053;-74
2023/07/19 03:54:23;;;;;;;;;;;;;;;14.61;85.36;101239.78;4935329;28;20485;-76
2023/07/19 03:56:49;;;;;;;2.83;1.70;;;;;;;14.58;83.94;101237.66;4930235;28;19930;-77
2023/07/19 03:59:15;;;;;;;;;;;;;;;14.59;85.57;101233.88;4947565;28;20082;-75
2023/07/19 04:01:40;;;;;;;6.00;2.40;;;;;;;14.54;86.29;101232.03;4947836;28;19981;-77
2023/07/19 04:04:06;;;;;;;;;;;;;;;14.52;85.75;101241.50;4915158;28;20058;-75
2023/07/19 04:06:32;;;;;;;4.88;2.47;;;;;;;14.51;85.28;101245.28;4952713;28;19918;-76
2023/07/19 04:08:58;;;;;;;;;;;;;;;14.48;84.29;101244.75;4897381;28;20066;-77
2023/07/19 04:11:24;;;;;;;6.55;2.50;;;;;;;14.45;83.75;101244.47;4948036;28;19997;-76
2023/07/19 04:13:50;;;;;;;;;;;;;;;14.47;85.66;101240.44;4953492;28;20094;-77
2023/07/19 04:16:17;;;;;;;3.85;2.38;;;;;;;14.44;84.61;101246.38;4926397;28;19918;-76
2023/07/19 04:18:44;;;;;;;3.95;2.05;;;;;;;14.42;84.12;101232.38;4956058;28;20142;-76
2023/07/19 04:21:09;;;;;;;;;;;;;;;14.44;84.72;101230.22;4929744;28;20159;-77
2023/07/19 04:23:37;;;;;;;4.75;2.20;;;;;;;14.40;84.42;101236.44;4940531;28;19918;-75
2023/07/19 04:26:05;;;;;;;4.38;2.42;;;;;;;14.38;84.23;101230.53;4946962;28;20031;-76
2023/07/19 04:28:31;;;;;;;6.63;2.97;;;;;;;14.39;84.25;101230.25;4936323;28;20035;-76
2023/07/19 04:30:57;;;;;;;4.13;2.30;;;;;;;14.37;84.65;101228.94;4949263;28;20042;-77
2023/07/19 04:33:23;;;;;;;;;;;;;;;14.37;84.81;101229.75;4953532;28;20036;-78
2023/07/19 04:35:50;;;;;;;6.88;2.10;;;;;;;14.31;84.93;101235.44;4934255;28;19972;-76
2023/07/19 04:38:17;;;;;;;4.85;2.55;;;;;;;14.29;83.82;101233.00;4945849;28;20035;-77
2023/07/19 04:40:42;;;;;;;;;;;;;;;14.31;84.95;101233.56;4936286;28;20815;-76
2023/07/19 04:43:09;;;;;;;4.50;2.10;;;;;;;14.28;85.05;101223.31;4960795;28;20722;-76
2023/07/19 04:45:34;;;;;;;;;;;;;;;14.28;85.46;101226.03;4936152;28;20070;-78
2023/07/19 04:48:01;;;;;;;4.65;2.17;;;;;;;14.24;84.58;101225.00;4950484;28;20013;-76
2023/07/19 04:50:27;;;;;;;;;;;;;;;14.21;84.48;101223.66;4913916;28;20038;-78
2023/07/19 04:52:53;;;;;;;6.20;2.45;;;;;;;14.21;84.02;101218.25;4953536;28;19918;-76
2023/07/19 04:55:20;;;;;;;4.93;2.25;;;;;;;14.18;82.92;101223.44;4948410;28;20504;-76
2023/07/19 04:57:46;;;;;;;6.85;2.63;;;;;;;14.18;83.81;101221.53;4934308;29;20039;-76
2023/07/19 05:00:14;;;;;;;5.63;2.40;;;;;;;14.19;83.96;101231.22;4925879;28;20547;-77
2023/07/19 05:02:41;;;;;;;4.97;2.15;;;;;;;14.20;83.73;101240.09;4931022;28;20043;-76
2023/07/19 05:05:09;;;;;;;4.25;2.38;;;;;;;14.20;84.32;101248.19;4940457;28;20122;-76
2023/07/19 05:07:37;;;;;;;4.97;2.70;;;;;;;14.18;84.43;101244.97;4950200;28;20066;-74
2023/07/19 05:10:04;;;;;;;4.07;2.15;;;;;;;14.15;84.83;101243.63;4928068;28;20035;-74
2023/07/19 05:12:31;;;;;;;6.85;3.03;;;;;;;14.16;85.57;101255.25;4951546;28;20032;-77
2023/07/19 05:14:58;;;;;;;7.18;2.58;;;;;;;14.15;86.00;101257.09;4940533;28;20054;-75
2023/07/19 05:17:23;;;;;;;5.20;2.72;;;;;;;14.15;85.91;101254.41;4947967;28;20420;-75
2023/07/19 05:19:49;;;;;;;7.72;2.20;;;;;;;14.13;86.13;101253.88;4936622;28;20039;-76
2023/07/19 05:22:15;;;;;;;;;;;;;;;14.15;86.09;101253.59;4915890;28;20043;-75
2023/07/19 05:24:40;;;;;;;3.22;2.15;;;;;;;14.14;85.48;101257.38;4953298;28;20355;-74
2023/07/19 05:27:07;;;;;;;3.90;2.15;;;;;;;14.13;85.98;101250.41;4925536;28;20041;-73
2023/07/19 05:29:35;;;;;;;4.30;2.20;;;;;;;14.10;85.21;101248.28;4962427;28;20053;-75
2023/07/19 05:32:01;;;;;;;4.90;2.22;;;;;;;14.09;84.04;101252.03;4942511;28;20031;-76
2023/07/19 05:34:27;;;;;;;5.00;2.55;;;;;;;14.11;83.91;101250.69;4932791;28;20182;-77
2023/07/19 05:36:53;;;;;;;4.07;2.35;;;;;;;14.14;84.40;101246.59;4948696;28;20118;-73
2023/07/19 05:39:18;;;;;;;;;;;;;;;14.17;85.48;101243.38;4932954;28;20507;-76
2023/07/19 05:41:44;;;;;;;3.05;2.05;;;;;;;14.14;84.48;101239.34;4951502;28;19918;-75
2023/07/19 05:44:11;;;;;;;4.30;2.20;;;;;;;14.14;83.77;101243.91;4945011;28;20404;-77
2023/07/19 05:46:37;;;;;;;4.30;2.58;;;;;;;14.18;83.87;101239.59;4954481;28;20035;-75
2023/07/19 05:49:03;;;;;;;;;;;;;;;14.21;85.06;101239.00;4926900;28;20035;-75
2023/07/19 05:51:29;;;;;;;4.95;2.60;;;;;;;14.23;85.37;101244.94;4944922;28;19926;-75
2023/07/19 05:53:55;;;;;;;3.13;1.75;;;;;;;14.20;83.31;101242.78;4924989;28;20038;-77
2023/07/19 05:56:21;;;;;;;;;;;;;;;14.20;83.62;101245.50;4933766;28;20043;-76
2023/07/19 05:58:48;;;;;;;3.33;1.80;;;;;;;14.21;84.43;101244.41;4948101;28;20017;-76
2023/07/19 06:01:17;;;;;;;4.03;2.15;;;;;;;14.19;83.78;101235.81;4927433;28;20093;-75
2023/07/19 06:03:46;;;;;;;3.63;1.73;;;;;;;14.20;84.00;101237.41;4916776;28;20121;-76
2023/07/19 06:06:14;;;;;;;3.00;1.80;;;;;;;14.20;82.93;101237.41;4925223;28;20043;-75
2023/07/19 06:08:40;;;;;;;4.68;2.45;;;;;;;14.22;82.91;101240.63;4930153;28;20031;-75
2023/07/19 06:11:07;;;;;;;3.45;1.98;;;;;;;14.25;83.84;101240.06;4939199;28;20126;-75
2023/07/19 06:13:33;;;;;;;6.13;2.38;;;;;;;14.21;83.04;101228.25;4947898;28;20049;-74
2023/07/19 06:15:59;;;;;;;3.10;1.80;;;;;;;14.21;83.23;101230.94;4952284;28;20046;-76
2023/07/19 06:18:24;;;;;;;;;;;;;;;14.22;85.10;101229.84;4942127;28;20101;-76
2023/07/19 06:20:50;;;;;;;6.38;1.92;;;;;;;14.23;84.03;101233.38;4949665;28;20343;-76
2023/07/19 06:23:16;;;;;;;;;;;;;;;14.23;83.41;101223.41;4947897;28;20031;-74
2023/07/19 06:25:42;;;;;;;3.85;1.88;;;;;;;14.25;84.36;101215.81;4933869;28;19929;-74
2023/07/19 06:28:07;;;;;;;;;;;;;;;14.29;84.72;101216.84;4924678;28;20044;-75
2023/07/19 06:30:33;;;;;;;4.07;2.08;;;;;;;14.32;83.97;101219.00;4952912;28;19947;-76
2023/07/19 06:32:59;;;;;;;;;;;;;;;14.35;83.77;101209.53;4942657;28;20412;-78
2023/07/19 06:35:24;;;;;;;3.72;2.22;;;;;;;14.39;83.46;101216.78;4919574;28;19926;-74
2023/07/19 06:37:50;;;;;;;;;;;;;;;14.46;84.46;101219.97;4936826;28;20088;-75
2023/07/19 06:40:16;;;;;;;5.05;2.20;;;;;;;14.48;84.35;101217.78;4925754;28;20272;-76
2023/07/19 06:42:42;;;;;;;;;;;;;;;14.57;84.89;101220.69;4931815;28;20582;-76
2023/07/19 06:45:08;;;;;;;4.95;2.55;;;;;;;14.60;86.30;101233.59;4945378;28;19929;-77
2023/07/19 06:47:34;;;;;;;4.63;2.20;;;;;;;14.62;83.96;101230.59;4949312;28;20047;-75
2023/07/19 06:50:00;;;;;;;;;;;;;;;14.59;82.62;101218.50;4944233;28;20038;-76
2023/07/19 06:52:26;;;;;;;3.17;1.75;;;;;;;14.60;82.97;101220.09;4932626;28;19926;-75
2023/07/19 06:54:51;;;;;;;;;;;;;;;14.55;81.62;101211.25;4947406;28;20046;-76
2023/07/19 06:57:19;;;;;;;3.35;1.85;;;;;;;14.58;82.43;101205.31;4956251;28;20439;-75
2023/07/19 06:59:45;;;;;;;4.32;1.70;;;;;;;14.61;82.96;101215.53;4949604;28;20118;-77
2023/07/19 07:02:11;;;;;;;;;;;;;;;14.59;81.81;101212.31;4940075;28;20125;-77
2023/07/19 07:04:36;;;;;;;3.88;2.33;;;;;;;14.59;82.79;101217.72;4930818;28;19914;-76
2023/07/19 07:07:03;;;;;;;3.35;2.08;;;;;;;14.62;82.73;101212.53;4947637;28;20043;-77
2023/07/19 07:09:29;;;;;;;;;;;;;;;14.64;81.51;101214.97;4946884;28;20032;-78
2023/07/19 07:11:56;;;;;;;2.88;1.95;;;;;;;14.63;81.91;101206.09;4933006;28;19966;-77
2023/07/19 07:14:22;;;;;;;2.85;1.50;;;;;;;14.69;81.92;101206.81;4940522;28;20034;-77
2023/07/19 07:16:47;;;;;;;;;;;;;;;14.71;82.12;101210.03;4933095;28;20039;-77
2023/07/19 07:19:13;;;;;;;2.40;1.45;;;;;;;14.70;81.15;101213.84;4928567;28;19922;-77
2023/07/19 07:21:39;;;;;;;;;;;;;;;14.71;82.16;101210.03;4955953;28;20504;-76
2023/07/19 07:24:05;;;;;;;3.50;1.85;;;;;;;14.71;81.26;101204.66;4934145;28;19923;-76
2023/07/19 07:26:30;;;;;;;;;;;;;;;14.72;81.46;101209.75;4945338;28;20039;-75
2023/07/19 07:28:57;;;;;;;2.97;2.03;;;;;;;14.72;82.11;101204.34;4925675;28;19997;-77
2023/07/19 07:31:23;;;;;;;4.85;1.60;;;;;;;14.75;81.30;101211.06;4934053;28;20150;-77
2023/07/19 07:33:48;;;;;;;;;;;;;;;14.79;81.77;101212.09;4948093;28;20463;-77
2023/07/19 07:36:14;;;;;;;3.85;1.60;;;;;;;14.79;81.49;101205.91;4940804;28;19925;-76
2023/07/19 07:38:39;;;;;;;;;;;;;;;14.82;81.76;101206.13;4949398;28;20063;-76
2023/07/19 07:41:05;;;;;;;3.42;1.58;;;;;;;14.83;80.87;101213.13;4921748;28;19929;-77
2023/07/19 07:43:31;;;;;;;2.83;1.92;;;;;;;14.88;81.52;101210.38;4956052;28;20039;-74
2023/07/19 07:45:58;;;;;;;;;;;;;;;14.93;82.50;101215.72;4938577;28;20039;-75
2023/07/19 07:48:25;;;;;;;2.15;1.50;;;;;;;14.94;81.24;101213.81;4931209;28;19923;-77
2023/07/19 07:50:51;;;;;;;2.65;1.80;;;;;;;14.93;79.90;101215.72;4935867;28;20440;-77
2023/07/19 07:53:21;;;;;;;2.85;1.48;;;;;;;14.97;81.21;101218.63;4930135;28;20061;-77
2023/07/19 07:55:48;;;;;;;3.10;1.70;;;;;;;15.00;80.78;101207.28;4913406;28;20106;-77
2023/07/19 07:58:14;;;;;;;2.70;1.60;;;;;;;15.09;80.70;101207.44;4917674;28;20523;-76
2023/07/19 08:00:43;;;;;;;;;;;;;;;15.15;80.19;101219.78;4953620;28;20032;-78
2023/07/19 08:03:09;;;;;;;3.22;1.42;;;;;;;15.16;79.02;101211.41;4939653;28;19950;-76
2023/07/19 08:05:35;;;;;;;2.88;2.13;;;;;;;15.23;78.30;101219.13;4948690;28;20065;-75
2023/07/19 08:08:03;;;;;;;;;;;;;;;15.30;78.76;101214.19;4938928;28;20620;-76
2023/07/19 08:10:30;;;;;;;3.60;1.30;;;;;;;15.36;78.27;101215.72;4951008;28;20574;-75
2023/07/19 08:12:56;;;;;;;2.65;1.40;;;;;;;15.41;77.70;101207.56;4921122;28;20039;-76
2023/07/19 08:15:23;;;;;;;4.25;2.15;;;;;;;15.47;76.34;101203.72;4950967;28;20036;-75
2023/07/19 08:17:49;;;;;;;3.58;1.60;;;;;;;15.55;75.89;101186.88;4950740;28;20043;-75
2023/07/19 08:20:15;;;;;;;2.88;1.40;;;;;;;15.69;76.95;101188.88;4947739;28;20108;-74
2023/07/19 08:22:41;;;;;;;;;;;;;;;15.88;77.27;101180.75;4941566;28;20031;-76
2023/07/19 08:25:07;;;;;;;3.50;1.90;;;;;;;15.97;76.86;101168.16;4946134;28;20343;-77
2023/07/19 08:27:34;;;;;;;5.00;1.90;;;;;;;16.10;76.14;101179.03;4933625;28;20039;-77
2023/07/19 08:30:04;;;;;;;2.17;1.30;;;;;;;16.29;75.76;101181.69;4949154;28;20061;-75
2023/07/19 08:32:32;;;;;;;2.65;1.02;;;;;;;16.33;74.96;101173.78;4932702;28;20091;-76
2023/07/19 08:34:57;;;;;;;2.70;1.35;;;;;;;16.43;74.15;101178.19;4934762;28;20042;-76
2023/07/19 08:37:23;;;;;;;;;;;;;;;16.46;73.45;101181.13;4913158;28;20035;-75
2023/07/19 08:39:48;;;;;;;2.88;1.80;;;;;;;16.47;72.99;101177.31;4946246;28;20439;-75
2023/07/19 08:42:14;;;;;;;;;;;;;;;16.50;72.81;101173.19;4938206;28;20483;-77
2023/07/19 08:44:41;;;;;;;2.42;1.48;;;;;;;16.54;72.07;101185.03;4946264;28;20008;-75
2023/07/19 08:47:10;;;;;;;2.90;1.42;;;;;;;16.55;71.35;101182.03;4929478;28;20370;-79
2023/07/19 08:49:37;;;;;;;2.75;1.70;;;;;;;16.64;73.09;101180.22;4945901;28;20503;-76
2023/07/19 08:52:05;;;;;;;3.10;1.50;;;;;;;16.74;72.36;101178.47;4937809;28;20059;-76
2023/07/19 08:54:31;;;;;;;2.45;1.10;;;;;;;16.77;72.09;101178.66;4944764;28;20036;-76
2023/07/19 08:56:56;;;;;;;;;;;;;;;16.87;72.60;101178.47;4932700;28;20476;-78
2023/07/19 08:59:22;;;;;;;2.90;1.23;;;;;;;16.88;69.61;101168.44;4935679;28;19918;-77
2023/07/19 09:01:48;;;;;;;;;;;;;;;16.90;70.05;101179.75;4935371;28;20086;-76
2023/07/19 09:04:13;;;;;;;2.83;1.50;;;;;;;16.95;70.23;101179.66;4939489;28;19949;-77
2023/07/19 09:06:39;;;;;;;;;;;;;;;17.01;68.72;101175.75;4954520;28;20056;-77
2023/07/19 09:09:08;;;;;;;2.47;1.17;;;;;;;17.06;70.07;101175.63;4941201;28;19922;-76
2023/07/19 09:11:34;;;;;;;3.33;1.55;;;;;;;17.19;68.55;101165.91;4951316;28;20053;-79
2023/07/19 09:14:00;;;;;;;;;;;;;;;17.39;67.60;101168.16;4932611;28;20485;-77
2023/07/19 09:16:31;;;;;;;2.72;1.27;;;;;;;17.53;65.05;101172.75;4950468;28;19922;-81
2023/07/19 09:18:58;;;;;;;3.25;1.30;;;;;;;17.61;67.21;101172.84;4915906;28;20044;-79
2023/07/19 09:21:31;;;;;;;2.33;1.10;;;;;;;17.77;65.54;101161.66;4932627;28;20481;-78
2023/07/19 09:23:58;;;;;;;2.92;1.48;;;;;;;17.85;65.45;101158.22;4949590;28;20781;-78
2023/07/19 09:26:24;;;;;;;1.83;1.00;;;;;;;18.13;67.92;101167.78;4935704;28;20118;-77
2023/07/19 09:28:51;;;;;;;2.55;1.45;;;;;;;18.15;64.16;101167.47;4926824;28;20049;-78
2023/07/19 09:31:17;;;;;;;3.70;1.38;;;;;;;18.32;65.51;101155.94;4930516;28;20034;-78
2023/07/19 09:33:42;;;;;;;;;;;;;;;18.40;64.74;101163.31;4931341;28;20569;-75
2023/07/19 09:36:08;;;;;;;2.97;1.35;;;;;;;18.49;64.26;101158.72;4938397;28;19919;-77
2023/07/19 09:38:34;;;;;;;2.80;1.30;;;;;;;18.63;63.37;101155.91;4933368;28;20043;-77
2023/07/19 09:41:00;;;;;;;2.40;1.40;;;;;;;18.59;63.25;101161.16;4903365;28;20050;-78
2023/07/19 09:43:26;;;;;;;2.65;1.10;;;;;;;18.65;64.50;101149.06;4952297;28;20070;-76
2023/07/19 09:45:51;;;;;;;2.30;1.50;;;;;;;18.64;63.16;101147.47;4949648;28;20058;-78
2023/07/19 09:48:18;;;;;;;;;;;;;;;18.94;64.74;101148.53;4920061;29;20117;-79
2023/07/19 09:50:47;;;;;;;3.75;1.38;;;;;;;19.01;61.50;101140.72;4948528;28;19969;-77
2023/07/19 09:53:13;;;;;;;2.67;1.30;;;;;;;18.89;61.73;101139.75;4952052;28;20050;-79
2023/07/19 09:55:39;;;;;;;5.50;1.55;;;;;;;18.82;61.35;101142.91;4955329;28;20403;-79
2023/07/19 09:58:09;;;;;;;4.47;1.50;;;;;;;18.88;62.34;101138.16;4936001;28;20039;-81
2023/07/19 10:00:36;;;;;;;3.05;1.20;;;;;;;18.94;61.62;101140.41;4921035;28;20039;-78
2023/07/19 10:03:02;;;;;;;2.00;1.30;;;;;;;19.00;63.07;101133.72;4943263;28;20695;-78
2023/07/19 10:05:29;;;;;;;1.95;1.27;;;;;;;19.00;62.13;101138.34;4933748;28;20089;-78
2023/07/19 10:08:03;;;;;;;3.83;2.10;;;;;;;18.87;60.92;101140.06;4939464;28;20122;-76
2023/07/19 10:10:36;;;;;;;2.22;1.20;;;;;;;18.86;61.80;101148.53;4949983;28;20030;-77
2023/07/19 10:13:02;;;;;;;2.95;1.13;;;;;;;18.94;62.61;101134.19;4929948;28;21484;-76
2023/07/19 10:15:28;;;;;;;2.45;1.45;;;;;;;18.92;63.59;101139.13;4950865;28;20035;-75
2023/07/19 10:17:55;;;;;;;2.88;1.95;;;;;;;18.87;62.60;101139.25;4934657;28;20038;-76
2023/07/19 10:20:34;;;;;;;3.72;1.48;;;;;;;18.88;62.87;101140.84;4949441;28;20438;-77
2023/07/19 10:23:08;;;;;;;2.53;1.70;;;;;;;18.78;61.97;101137.34;4946646;28;20405;-76
2023/07/19 10:25:38;;;;;;;3.92;1.50;;;;;;;18.78;62.54;101137.34;4938097;28;20797;-78
2023/07/19 10:28:04;;;;;;;2.88;1.88;;;;;;;19.03;63.23;101127.66;4924068;28;20504;-76
2023/07/19 10:30:48;;;;;;;2.97;1.55;;;;;;;19.06;62.60;101137.88;4940901;28;20035;-78
2023/07/19 10:33:19;;;;;;;3.03;1.80;;;;;;;19.22;63.01;101126.53;4951072;28;20112;-76
2023/07/19 10:35:46;;;;;;;2.88;1.90;;;;;;;19.21;62.66;101128.47;4926714;28;20475;-78
2023/07/19 10:38:19;;;;;;;2.78;1.63;;;;;;;19.18;60.67;101128.31;4927135;28;20034;-77
2023/07/19 10:40:54;;;;;;;2.30;1.52;;;;;;;19.23;62.10;101126.22;4949091;28;20035;-76
2023/07/19 10:43:21;;;;;;;2.35;1.50;;;;;;;19.28;61.89;101125.28;4945201;28;20035;-78
2023/07/19 10:45:47;;;;;;;7.15;2.10;;;;;;;19.17;61.65;101122.09;4948387;28;20031;-78
2023/07/19 10:48:13;;;;;;;2.92;2.25;;;;;;;19.12;62.85;101124.94;4942010;28;20031;-78
2023/07/19 10:50:41;;;;;;;3.65;1.88;;;;;;;19.17;62.11;101135.66;4935150;28;20062;-78
2023/07/19 10:53:07;;;;;;;3.85;1.67;;;;;;;19.11;61.67;101128.78;4942917;28;20035;-76
2023/07/19 10:55:33;;;;;;;4.03;1.73;;;;;;;19.09;62.24;101131.00;4949309;28;20524;-79
2023/07/19 10:57:59;;;;;;;3.83;1.98;;;;;;;19.26;62.06;101124.81;4952158;28;20071;-78
2023/07/19 11:00:24;;;;;;;3.80;1.83;;;;;;;19.41;61.91;101115.38;4946557;28;20032;-81
2023/07/19 11:02:52;;;;;;;4.97;2.20;;;;;;;19.29;62.31;101114.09;4939208;28;20046;-78
2023/07/19 11:05:18;;;;;;;4.22;2.28;;;;;;;19.31;63.25;101127.38;4943980;28;20043;-77
2023/07/19 11:07:48;;;;;;;3.70;2.17;;;;;;;19.26;62.37;101125.59;4950680;28;20043;-77
2023/07/19 11:10:13;;;;;;;2.70;1.70;;;;;;;19.16;62.08;101128.63;4946857;28;20533;-76
2023/07/19 11:12:41;;;;;;;5.95;2.20;;;;;;;19.20;63.44;101121.44;4950875;28;20126;-75
2023/07/19 11:15:08;;;;;;;3.10;2.10;;;;;;;19.18;64.05;101123.69;4936432;28;20488;-77
2023/07/19 11:17:37;;;;;;;2.95;1.70;;;;;;;19.16;63.25;101116.97;4953371;28;20039;-77
2023/07/19 11:20:03;;;;;;;3.25;1.80;;;;;;;19.06;63.32;101120.78;4924527;28;20035;-76
2023/07/19 11:22:29;;;;;;;2.78;1.60;;;;;;;19.05;63.50;101114.56;4949210;28;20047;-77
2023/07/19 11:24:55;;;;;;;;;;;;;;;19.11;65.48;101115.22;4948119;28;20038;-78
2023/07/19 11:27:38;;;;;;;3.13;1.77;;;;;;;19.16;64.73;101109.59;4955124;28;19919;-76
2023/07/19 11:30:05;;;;;;;4.03;2.42;;;;;;;19.18;65.11;101095.75;4949059;28;20093;-78
2023/07/19 11:32:31;;;;;;;4.35;2.30;;;;;;;19.10;63.11;101105.44;4935777;28;20115;-77
2023/07/19 11:34:58;;;;;;;4.53;2.47;;;;;;;19.06;63.71;101102.59;4957507;28;20135;-77
2023/07/19 11:37:36;;;;;;;2.63;1.95;;;;;;;19.15;63.45;101102.59;4937907;28;20039;-77